sensor_id;sensor_type;location;lat;lon;timestamp;P1;durP1;ratioP1;P2;durP2;ratioP2
16743;SDS011;71724;-33.900;151.182;2024-02-26T00:02:21;7.53;;;3.30;;
16743;SDS011;71724;-33.900;151.182;2024-02-26T00:04:48;9.18;;;3.63;;
16743;SDS011;71724;-33.900;151.182;2024-02-26T00:07:16;5.78;;;3.50;;
16743;SDS011;71724;-33.900;151.182;2024-02-26T00:09:43;8.55;;;4.05;;
16743;SDS011;71724;-33.900;151.182;2024-02-26T00:12:11;9.82;;;3.63;;
16743;SDS011;71724;-33.900;151.182;2024-02-26T00:14:38;7.20;;;3.75;;
16743;SDS011;71724;-33.900;151.182;2024-02-26T00:17:06;7.55;;;4.03;;
16743;SDS011;71724;-33.900;151.182;2024-02-26T00:19:35;10.98;;;4.10;;
16743;SDS011;71724;-33.900;151.182;2024-02-26T00:22:02;12.18;;;4.10;;
16743;SDS011;71724;-33.900;151.182;2024-02-26T00:24:29;10.55;;;4.50;;
16743;SDS011;71724;-33.900;151.182;2024-02-26T00:26:57;11.02;;;3.97;;
16743;SDS011;71724;-33.900;151.182;2024-02-26T00:29:25;9.52;;;3.92;;
16743;SDS011;71724;-33.900;151.182;2024-02-26T00:31:52;10.18;;;3.83;;
16743;SDS011;71724;-33.900;151.182;2024-02-26T00:34:20;9.10;;;3.53;;
16743;SDS011;71724;-33.900;151.182;2024-02-26T00:36:47;7.72;;;3.67;;
16743;SDS011;71724;-33.900;151.182;2024-02-26T00:39:15;7.85;;;3.35;;
16743;SDS011;71724;-33.900;151.182;2024-02-26T00:41:42;11.07;;;3.80;;
16743;SDS011;71724;-33.900;151.182;2024-02-26T00:44:09;9.48;;;3.30;;
16743;SDS011;71724;-33.900;151.182;2024-02-26T00:46:37;10.63;;;3.55;;
16743;SDS011;71724;-33.900;151.182;2024-02-26T00:49:05;7.45;;;2.88;;
16743;SDS011;71724;-33.900;151.182;2024-02-26T00:51:32;9.40;;;3.47;;
16743;SDS011;71724;-33.900;151.182;2024-02-26T00:53:59;9.13;;;3.45;;
16743;SDS011;71724;-33.900;151.182;2024-02-26T00:56:27;7.15;;;2.35;;
16743;SDS011;71724;-33.900;151.182;2024-02-26T00:58:54;9.38;;;2.65;;
16743;SDS011;71724;-33.900;151.182;2024-02-26T01:01:21;10.32;;;2.50;;
16743;SDS011;71724;-33.900;151.182;2024-02-26T01:03:49;9.32;;;2.60;;
16743;SDS011;71724;-33.900;151.182;2024-02-26T01:06:16;10.85;;;3.00;;
16743;SDS011;71724;-33.900;151.182;2024-02-26T01:08:44;10.40;;;2.65;;
16743;SDS011;71724;-33.900;151.182;2024-02-26T01:11:11;11.30;;;3.10;;
16743;SDS011;71724;-33.900;151.182;2024-02-26T01:13:39;12.02;;;3.10;;
16743;SDS011;71724;-33.900;151.182;2024-02-26T01:16:06;8.68;;;3.10;;
16743;SDS011;71724;-33.900;151.182;2024-02-26T01:18:33;11.93;;;3.90;;
16743;SDS011;71724;-33.900;151.182;2024-02-26T01:21:01;13.90;;;3.53;;
16743;SDS011;71724;-33.900;151.182;2024-02-26T01:23:30;11.40;;;3.45;;
16743;SDS011;71724;-33.900;151.182;2024-02-26T01:25:57;9.93;;;3.83;;
16743;SDS011;71724;-33.900;151.182;2024-02-26T01:28:24;10.20;;;3.92;;
16743;SDS011;71724;-33.900;151.182;2024-02-26T01:30:52;10.65;;;3.55;;
16743;SDS011;71724;-33.900;151.182;2024-02-26T01:33:19;11.40;;;3.95;;
16743;SDS011;71724;-33.900;151.182;2024-02-26T01:35:46;12.85;;;3.85;;
16743;SDS011;71724;-33.900;151.182;2024-02-26T01:38:14;12.68;;;3.70;;
16743;SDS011;71724;-33.900;151.182;2024-02-26T01:40:43;12.55;;;3.65;;
16743;SDS011;71724;-33.900;151.182;2024-02-26T01:43:10;15.82;;;3.80;;
16743;SDS011;71724;-33.900;151.182;2024-02-26T01:45:37;11.63;;;3.33;;
16743;SDS011;71724;-33.900;151.182;2024-02-26T01:48:05;12.10;;;3.58;;
16743;SDS011;71724;-33.900;151.182;2024-02-26T01:50:32;15.07;;;3.80;;
16743;SDS011;71724;-33.900;151.182;2024-02-26T01:53:00;10.23;;;4.55;;
16743;SDS011;71724;-33.900;151.182;2024-02-26T01:55:27;10.25;;;4.07;;
16743;SDS011;71724;-33.900;151.182;2024-02-26T01:57:55;9.93;;;3.70;;
16743;SDS011;71724;-33.900;151.182;2024-02-26T02:00:22;10.55;;;3.45;;
16743;SDS011;71724;-33.900;151.182;2024-02-26T02:02:50;11.13;;;3.83;;
16743;SDS011;71724;-33.900;151.182;2024-02-26T02:05:20;13.80;;;3.70;;
16743;SDS011;71724;-33.900;151.182;2024-02-26T02:07:48;16.15;;;3.85;;
16743;SDS011;71724;-33.900;151.182;2024-02-26T02:10:17;15.95;;;4.07;;
16743;SDS011;71724;-33.900;151.182;2024-02-26T02:12:48;11.98;;;3.63;;
16743;SDS011;71724;-33.900;151.182;2024-02-26T02:15:16;11.30;;;3.78;;
16743;SDS011;71724;-33.900;151.182;2024-02-26T02:17:44;11.95;;;4.20;;
16743;SDS011;71724;-33.900;151.182;2024-02-26T02:20:17;12.43;;;4.38;;
16743;SDS011;71724;-33.900;151.182;2024-02-26T02:22:45;13.00;;;4.30;;
16743;SDS011;71724;-33.900;151.182;2024-02-26T02:25:13;13.45;;;4.18;;
16743;SDS011;71724;-33.900;151.182;2024-02-26T02:27:40;8.60;;;3.80;;
16743;SDS011;71724;-33.900;151.182;2024-02-26T02:30:09;10.50;;;4.05;;
16743;SDS011;71724;-33.900;151.182;2024-02-26T02:32:38;9.85;;;4.53;;
16743;SDS011;71724;-33.900;151.182;2024-02-26T02:35:09;12.30;;;4.63;;
16743;SDS011;71724;-33.900;151.182;2024-02-26T02:37:37;13.55;;;4.30;;
16743;SDS011;71724;-33.900;151.182;2024-02-26T02:40:04;9.50;;;4.82;;
16743;SDS011;71724;-33.900;151.182;2024-02-26T02:42:32;7.43;;;4.68;;
16743;SDS011;71724;-33.900;151.182;2024-02-26T02:44:59;11.45;;;4.85;;
16743;SDS011;71724;-33.900;151.182;2024-02-26T02:47:27;7.80;;;4.60;;
16743;SDS011;71724;-33.900;151.182;2024-02-26T02:49:54;13.13;;;5.53;;
16743;SDS011;71724;-33.900;151.182;2024-02-26T02:52:22;10.27;;;5.13;;
16743;SDS011;71724;-33.900;151.182;2024-02-26T02:54:49;10.55;;;5.10;;
16743;SDS011;71724;-33.900;151.182;2024-02-26T02:57:17;13.57;;;5.45;;
16743;SDS011;71724;-33.900;151.182;2024-02-26T02:59:44;11.02;;;4.95;;
16743;SDS011;71724;-33.900;151.182;2024-02-26T03:02:12;10.40;;;5.85;;
16743;SDS011;71724;-33.900;151.182;2024-02-26T03:04:39;11.30;;;5.50;;
16743;SDS011;71724;-33.900;151.182;2024-02-26T03:07:06;11.27;;;5.75;;
16743;SDS011;71724;-33.900;151.182;2024-02-26T03:09:34;10.07;;;5.72;;
16743;SDS011;71724;-33.900;151.182;2024-02-26T03:12:01;14.95;;;5.43;;
16743;SDS011;71724;-33.900;151.182;2024-02-26T03:14:29;8.13;;;5.80;;
16743;SDS011;71724;-33.900;151.182;2024-02-26T03:16:56;12.65;;;5.93;;
16743;SDS011;71724;-33.900;151.182;2024-02-26T03:19:24;12.88;;;6.40;;
16743;SDS011;71724;-33.900;151.182;2024-02-26T03:21:51;13.13;;;5.85;;
16743;SDS011;71724;-33.900;151.182;2024-02-26T03:24:19;9.88;;;5.72;;
16743;SDS011;71724;-33.900;151.182;2024-02-26T03:26:46;9.70;;;5.60;;
16743;SDS011;71724;-33.900;151.182;2024-02-26T03:29:13;9.82;;;5.38;;
16743;SDS011;71724;-33.900;151.182;2024-02-26T03:31:41;11.68;;;5.90;;
16743;SDS011;71724;-33.900;151.182;2024-02-26T03:34:08;14.30;;;5.20;;
16743;SDS011;71724;-33.900;151.182;2024-02-26T03:36:37;9.45;;;4.95;;
16743;SDS011;71724;-33.900;151.182;2024-02-26T03:39:04;10.95;;;5.00;;
16743;SDS011;71724;-33.900;151.182;2024-02-26T03:41:36;9.60;;;5.07;;
16743;SDS011;71724;-33.900;151.182;2024-02-26T03:44:04;10.20;;;5.40;;
16743;SDS011;71724;-33.900;151.182;2024-02-26T03:46:31;9.98;;;5.00;;
16743;SDS011;71724;-33.900;151.182;2024-02-26T03:48:58;14.93;;;5.05;;
16743;SDS011;71724;-33.900;151.182;2024-02-26T03:51:26;9.48;;;5.00;;
16743;SDS011;71724;-33.900;151.182;2024-02-26T03:53:57;10.95;;;5.40;;
16743;SDS011;71724;-33.900;151.182;2024-02-26T03:56:25;8.93;;;4.95;;
16743;SDS011;71724;-33.900;151.182;2024-02-26T03:58:53;10.60;;;5.03;;
16743;SDS011;71724;-33.900;151.182;2024-02-26T04:01:20;15.35;;;6.03;;
16743;SDS011;71724;-33.900;151.182;2024-02-26T04:03:48;13.63;;;5.32;;
16743;SDS011;71724;-33.900;151.182;2024-02-26T04:06:15;11.55;;;5.60;;
16743;SDS011;71724;-33.900;151.182;2024-02-26T04:08:46;19.20;;;6.25;;
16743;SDS011;71724;-33.900;151.182;2024-02-26T04:11:14;11.95;;;5.43;;
16743;SDS011;71724;-33.900;151.182;2024-02-26T04:13:44;12.45;;;5.15;;
16743;SDS011;71724;-33.900;151.182;2024-02-26T04:16:12;13.40;;;6.43;;
16743;SDS011;71724;-33.900;151.182;2024-02-26T04:18:40;10.55;;;5.85;;
16743;SDS011;71724;-33.900;151.182;2024-02-26T04:21:07;13.18;;;5.40;;
16743;SDS011;71724;-33.900;151.182;2024-02-26T04:23:35;18.05;;;5.82;;
16743;SDS011;71724;-33.900;151.182;2024-02-26T04:26:02;11.32;;;5.70;;
16743;SDS011;71724;-33.900;151.182;2024-02-26T04:28:31;13.43;;;4.10;;
16743;SDS011;71724;-33.900;151.182;2024-02-26T04:30:58;12.55;;;4.45;;
16743;SDS011;71724;-33.900;151.182;2024-02-26T04:33:25;15.73;;;4.95;;
16743;SDS011;71724;-33.900;151.182;2024-02-26T04:35:53;13.88;;;4.43;;
16743;SDS011;71724;-33.900;151.182;2024-02-26T04:38:20;9.77;;;4.07;;
16743;SDS011;71724;-33.900;151.182;2024-02-26T04:40:48;14.50;;;4.57;;
16743;SDS011;71724;-33.900;151.182;2024-02-26T04:43:15;11.65;;;4.75;;
16743;SDS011;71724;-33.900;151.182;2024-02-26T04:45:43;10.57;;;4.55;;
16743;SDS011;71724;-33.900;151.182;2024-02-26T04:48:11;10.02;;;4.85;;
16743;SDS011;71724;-33.900;151.182;2024-02-26T04:50:38;12.15;;;4.50;;
16743;SDS011;71724;-33.900;151.182;2024-02-26T04:53:06;10.43;;;4.95;;
16743;SDS011;71724;-33.900;151.182;2024-02-26T04:55:33;11.57;;;4.45;;
16743;SDS011;71724;-33.900;151.182;2024-02-26T04:58:01;12.85;;;4.63;;
16743;SDS011;71724;-33.900;151.182;2024-02-26T05:00:28;16.83;;;4.43;;
16743;SDS011;71724;-33.900;151.182;2024-02-26T05:02:56;11.70;;;4.63;;
16743;SDS011;71724;-33.900;151.182;2024-02-26T05:05:23;11.23;;;4.30;;
16743;SDS011;71724;-33.900;151.182;2024-02-26T05:07:51;9.95;;;3.90;;
16743;SDS011;71724;-33.900;151.182;2024-02-26T05:10:18;8.13;;;4.28;;
16743;SDS011;71724;-33.900;151.182;2024-02-26T05:12:45;10.30;;;4.90;;
16743;SDS011;71724;-33.900;151.182;2024-02-26T05:15:13;13.38;;;4.22;;
16743;SDS011;71724;-33.900;151.182;2024-02-26T05:17:44;9.77;;;4.68;;
16743;SDS011;71724;-33.900;151.182;2024-02-26T05:20:11;10.95;;;4.35;;
16743;SDS011;71724;-33.900;151.182;2024-02-26T05:22:39;11.82;;;4.90;;
16743;SDS011;71724;-33.900;151.182;2024-02-26T05:25:06;11.95;;;4.72;;
16743;SDS011;71724;-33.900;151.182;2024-02-26T05:27:34;12.73;;;4.55;;
16743;SDS011;71724;-33.900;151.182;2024-02-26T05:30:01;11.95;;;4.70;;
16743;SDS011;71724;-33.900;151.182;2024-02-26T05:32:29;10.45;;;4.38;;
16743;SDS011;71724;-33.900;151.182;2024-02-26T05:34:56;8.38;;;4.47;;
16743;SDS011;71724;-33.900;151.182;2024-02-26T05:37:24;9.27;;;3.90;;
16743;SDS011;71724;-33.900;151.182;2024-02-26T05:39:51;15.45;;;4.85;;
16743;SDS011;71724;-33.900;151.182;2024-02-26T05:42:19;10.68;;;4.43;;
16743;SDS011;71724;-33.900;151.182;2024-02-26T05:44:46;14.48;;;4.75;;
16743;SDS011;71724;-33.900;151.182;2024-02-26T05:47:14;17.42;;;5.63;;
16743;SDS011;71724;-33.900;151.182;2024-02-26T05:49:42;17.52;;;5.35;;
16743;SDS011;71724;-33.900;151.182;2024-02-26T05:52:09;17.00;;;5.55;;
16743;SDS011;71724;-33.900;151.182;2024-02-26T05:54:37;17.40;;;5.63;;
16743;SDS011;71724;-33.900;151.182;2024-02-26T05:57:04;19.80;;;6.00;;
16743;SDS011;71724;-33.900;151.182;2024-02-26T05:59:32;22.50;;;6.70;;
16743;SDS011;71724;-33.900;151.182;2024-02-26T06:01:59;19.73;;;6.05;;
16743;SDS011;71724;-33.900;151.182;2024-02-26T06:04:26;19.77;;;6.00;;
16743;SDS011;71724;-33.900;151.182;2024-02-26T06:06:54;20.70;;;6.35;;
16743;SDS011;71724;-33.900;151.182;2024-02-26T06:09:22;20.30;;;6.22;;
16743;SDS011;71724;-33.900;151.182;2024-02-26T06:11:49;25.98;;;5.75;;
16743;SDS011;71724;-33.900;151.182;2024-02-26T06:14:17;19.42;;;6.03;;
16743;SDS011;71724;-33.900;151.182;2024-02-26T06:16:45;16.42;;;5.82;;
16743;SDS011;71724;-33.900;151.182;2024-02-26T06:19:12;19.10;;;5.68;;
16743;SDS011;71724;-33.900;151.182;2024-02-26T06:21:40;22.48;;;5.53;;
16743;SDS011;71724;-33.900;151.182;2024-02-26T06:24:07;22.48;;;6.20;;
16743;SDS011;71724;-33.900;151.182;2024-02-26T06:26:34;28.27;;;6.38;;
16743;SDS011;71724;-33.900;151.182;2024-02-26T06:29:02;16.70;;;5.50;;
16743;SDS011;71724;-33.900;151.182;2024-02-26T06:31:36;27.73;;;6.43;;
16743;SDS011;71724;-33.900;151.182;2024-02-26T06:34:03;22.10;;;6.20;;
16743;SDS011;71724;-33.900;151.182;2024-02-26T06:36:31;19.45;;;6.07;;
16743;SDS011;71724;-33.900;151.182;2024-02-26T06:38:59;26.17;;;6.25;;
16743;SDS011;71724;-33.900;151.182;2024-02-26T06:41:28;21.42;;;6.28;;
16743;SDS011;71724;-33.900;151.182;2024-02-26T06:43:55;21.00;;;5.72;;
16743;SDS011;71724;-33.900;151.182;2024-02-26T06:46:22;22.67;;;6.25;;
16743;SDS011;71724;-33.900;151.182;2024-02-26T06:48:51;20.88;;;5.85;;
16743;SDS011;71724;-33.900;151.182;2024-02-26T06:51:19;22.52;;;7.03;;
16743;SDS011;71724;-33.900;151.182;2024-02-26T06:53:46;23.35;;;6.47;;
16743;SDS011;71724;-33.900;151.182;2024-02-26T06:56:14;22.20;;;6.38;;
16743;SDS011;71724;-33.900;151.182;2024-02-26T06:58:41;29.55;;;5.93;;
16743;SDS011;71724;-33.900;151.182;2024-02-26T07:01:08;30.27;;;6.90;;
16743;SDS011;71724;-33.900;151.182;2024-02-26T07:03:40;23.15;;;5.85;;
16743;SDS011;71724;-33.900;151.182;2024-02-26T07:06:08;20.40;;;5.97;;
16743;SDS011;71724;-33.900;151.182;2024-02-26T07:08:35;22.02;;;5.35;;
16743;SDS011;71724;-33.900;151.182;2024-02-26T07:11:02;19.77;;;5.72;;
16743;SDS011;71724;-33.900;151.182;2024-02-26T07:13:34;17.50;;;5.53;;
16743;SDS011;71724;-33.900;151.182;2024-02-26T07:16:01;18.58;;;4.95;;
16743;SDS011;71724;-33.900;151.182;2024-02-26T07:18:29;20.55;;;5.50;;
16743;SDS011;71724;-33.900;151.182;2024-02-26T07:20:56;19.65;;;5.55;;
16743;SDS011;71724;-33.900;151.182;2024-02-26T07:23:24;23.05;;;5.70;;
16743;SDS011;71724;-33.900;151.182;2024-02-26T07:25:51;23.05;;;5.72;;
16743;SDS011;71724;-33.900;151.182;2024-02-26T07:28:19;24.98;;;5.63;;
16743;SDS011;71724;-33.900;151.182;2024-02-26T07:30:46;22.23;;;4.95;;
16743;SDS011;71724;-33.900;151.182;2024-02-26T07:33:13;14.27;;;4.10;;
16743;SDS011;71724;-33.900;151.182;2024-02-26T07:35:41;21.48;;;5.18;;
16743;SDS011;71724;-33.900;151.182;2024-02-26T07:38:08;17.02;;;4.85;;
16743;SDS011;71724;-33.900;151.182;2024-02-26T07:40:36;14.65;;;4.45;;
16743;SDS011;71724;-33.900;151.182;2024-02-26T07:43:03;16.38;;;4.72;;
16743;SDS011;71724;-33.900;151.182;2024-02-26T07:45:30;17.60;;;4.82;;
16743;SDS011;71724;-33.900;151.182;2024-02-26T07:47:58;19.98;;;5.25;;
16743;SDS011;71724;-33.900;151.182;2024-02-26T07:50:26;22.63;;;5.75;;
16743;SDS011;71724;-33.900;151.182;2024-02-26T07:52:54;17.45;;;4.72;;
16743;SDS011;71724;-33.900;151.182;2024-02-26T07:55:21;19.45;;;5.10;;
16743;SDS011;71724;-33.900;151.182;2024-02-26T07:57:48;21.05;;;4.93;;
16743;SDS011;71724;-33.900;151.182;2024-02-26T08:00:16;16.85;;;4.22;;
16743;SDS011;71724;-33.900;151.182;2024-02-26T08:02:43;13.13;;;4.15;;
16743;SDS011;71724;-33.900;151.182;2024-02-26T08:05:11;15.05;;;4.82;;
16743;SDS011;71724;-33.900;151.182;2024-02-26T08:07:38;19.45;;;5.15;;
16743;SDS011;71724;-33.900;151.182;2024-02-26T08:10:06;15.20;;;4.45;;
16743;SDS011;71724;-33.900;151.182;2024-02-26T08:12:34;16.05;;;4.50;;
16743;SDS011;71724;-33.900;151.182;2024-02-26T08:15:01;19.52;;;4.90;;
16743;SDS011;71724;-33.900;151.182;2024-02-26T08:17:29;19.27;;;4.57;;
16743;SDS011;71724;-33.900;151.182;2024-02-26T08:19:59;22.75;;;4.82;;
16743;SDS011;71724;-33.900;151.182;2024-02-26T08:22:26;16.23;;;4.75;;
16743;SDS011;71724;-33.900;151.182;2024-02-26T08:24:53;13.70;;;4.57;;
16743;SDS011;71724;-33.900;151.182;2024-02-26T08:27:21;16.60;;;4.40;;
16743;SDS011;71724;-33.900;151.182;2024-02-26T08:29:48;14.10;;;3.92;;
16743;SDS011;71724;-33.900;151.182;2024-02-26T08:32:16;12.73;;;4.43;;
16743;SDS011;71724;-33.900;151.182;2024-02-26T08:34:43;16.65;;;4.47;;
16743;SDS011;71724;-33.900;151.182;2024-02-26T08:37:10;20.10;;;4.70;;
16743;SDS011;71724;-33.900;151.182;2024-02-26T08:39:38;18.10;;;4.47;;
16743;SDS011;71724;-33.900;151.182;2024-02-26T08:42:05;19.10;;;4.78;;
16743;SDS011;71724;-33.900;151.182;2024-02-26T08:44:32;21.10;;;4.55;;
16743;SDS011;71724;-33.900;151.182;2024-02-26T08:47:00;14.77;;;4.32;;
16743;SDS011;71724;-33.900;151.182;2024-02-26T08:49:28;18.35;;;4.35;;
16743;SDS011;71724;-33.900;151.182;2024-02-26T08:51:55;28.42;;;5.22;;
16743;SDS011;71724;-33.900;151.182;2024-02-26T08:54:22;19.88;;;4.50;;
16743;SDS011;71724;-33.900;151.182;2024-02-26T08:56:50;18.77;;;4.07;;
16743;SDS011;71724;-33.900;151.182;2024-02-26T08:59:17;15.57;;;4.07;;
16743;SDS011;71724;-33.900;151.182;2024-02-26T09:01:48;16.65;;;4.15;;
16743;SDS011;71724;-33.900;151.182;2024-02-26T09:04:15;12.98;;;3.92;;
16743;SDS011;71724;-33.900;151.182;2024-02-26T09:06:42;18.52;;;3.92;;
16743;SDS011;71724;-33.900;151.182;2024-02-26T09:09:10;16.02;;;3.63;;
16743;SDS011;71724;-33.900;151.182;2024-02-26T09:11:37;16.88;;;4.00;;
16743;SDS011;71724;-33.900;151.182;2024-02-26T09:14:04;15.60;;;4.10;;
16743;SDS011;71724;-33.900;151.182;2024-02-26T09:16:32;18.52;;;3.90;;
16743;SDS011;71724;-33.900;151.182;2024-02-26T09:18:59;13.80;;;4.30;;
16743;SDS011;71724;-33.900;151.182;2024-02-26T09:21:28;12.48;;;3.40;;
16743;SDS011;71724;-33.900;151.182;2024-02-26T09:23:56;13.70;;;3.65;;
16743;SDS011;71724;-33.900;151.182;2024-02-26T09:26:23;17.52;;;4.50;;
16743;SDS011;71724;-33.900;151.182;2024-02-26T09:28:51;18.50;;;3.90;;
16743;SDS011;71724;-33.900;151.182;2024-02-26T09:31:18;13.48;;;3.65;;
16743;SDS011;71724;-33.900;151.182;2024-02-26T09:33:45;14.25;;;3.55;;
16743;SDS011;71724;-33.900;151.182;2024-02-26T09:36:13;20.08;;;3.95;;
16743;SDS011;71724;-33.900;151.182;2024-02-26T09:38:40;16.15;;;3.25;;
16743;SDS011;71724;-33.900;151.182;2024-02-26T09:41:10;15.25;;;4.43;;
16743;SDS011;71724;-33.900;151.182;2024-02-26T09:43:45;14.18;;;3.47;;
16743;SDS011;71724;-33.900;151.182;2024-02-26T09:46:14;13.48;;;3.75;;
16743;SDS011;71724;-33.900;151.182;2024-02-26T09:48:45;18.27;;;4.35;;
16743;SDS011;71724;-33.900;151.182;2024-02-26T09:51:14;17.08;;;3.70;;
16743;SDS011;71724;-33.900;151.182;2024-02-26T09:53:43;11.98;;;3.95;;
16743;SDS011;71724;-33.900;151.182;2024-02-26T09:56:14;8.43;;;2.80;;
16743;SDS011;71724;-33.900;151.182;2024-02-26T09:58:42;13.38;;;3.72;;
16743;SDS011;71724;-33.900;151.182;2024-02-26T10:01:13;16.92;;;4.35;;
16743;SDS011;71724;-33.900;151.182;2024-02-26T10:03:44;20.45;;;4.80;;
16743;SDS011;71724;-33.900;151.182;2024-02-26T10:06:24;12.73;;;3.80;;
16743;SDS011;71724;-33.900;151.182;2024-02-26T10:08:54;15.55;;;3.80;;
16743;SDS011;71724;-33.900;151.182;2024-02-26T10:11:24;13.25;;;4.03;;
16743;SDS011;71724;-33.900;151.182;2024-02-26T10:13:52;18.17;;;3.50;;
16743;SDS011;71724;-33.900;151.182;2024-02-26T10:16:20;11.48;;;3.45;;
16743;SDS011;71724;-33.900;151.182;2024-02-26T10:18:52;12.13;;;3.63;;
16743;SDS011;71724;-33.900;151.182;2024-02-26T10:21:20;14.18;;;3.63;;
16743;SDS011;71724;-33.900;151.182;2024-02-26T10:23:48;18.05;;;4.43;;
16743;SDS011;71724;-33.900;151.182;2024-02-26T10:26:16;13.95;;;3.88;;
16743;SDS011;71724;-33.900;151.182;2024-02-26T10:28:44;16.15;;;4.38;;
16743;SDS011;71724;-33.900;151.182;2024-02-26T10:31:13;12.60;;;3.40;;
16743;SDS011;71724;-33.900;151.182;2024-02-26T10:33:41;12.40;;;3.47;;
16743;SDS011;71724;-33.900;151.182;2024-02-26T10:36:10;13.50;;;4.18;;
16743;SDS011;71724;-33.900;151.182;2024-02-26T10:38:38;13.80;;;3.40;;
16743;SDS011;71724;-33.900;151.182;2024-02-26T10:41:12;11.77;;;3.40;;
16743;SDS011;71724;-33.900;151.182;2024-02-26T10:43:41;14.02;;;3.95;;
16743;SDS011;71724;-33.900;151.182;2024-02-26T10:46:10;14.90;;;4.10;;
16743;SDS011;71724;-33.900;151.182;2024-02-26T10:48:37;14.60;;;3.33;;
16743;SDS011;71724;-33.900;151.182;2024-02-26T10:51:05;14.65;;;3.85;;
16743;SDS011;71724;-33.900;151.182;2024-02-26T10:53:34;13.55;;;3.38;;
16743;SDS011;71724;-33.900;151.182;2024-02-26T10:56:03;12.88;;;3.50;;
16743;SDS011;71724;-33.900;151.182;2024-02-26T10:58:31;24.42;;;4.38;;
16743;SDS011;71724;-33.900;151.182;2024-02-26T11:00:59;17.65;;;4.00;;
16743;SDS011;71724;-33.900;151.182;2024-02-26T11:03:27;10.70;;;3.70;;
16743;SDS011;71724;-33.900;151.182;2024-02-26T11:05:57;11.40;;;3.75;;
16743;SDS011;71724;-33.900;151.182;2024-02-26T11:08:26;12.70;;;3.58;;
16743;SDS011;71724;-33.900;151.182;2024-02-26T11:10:54;9.63;;;3.17;;
16743;SDS011;71724;-33.900;151.182;2024-02-26T11:13:23;12.05;;;3.35;;
16743;SDS011;71724;-33.900;151.182;2024-02-26T11:15:56;10.50;;;3.50;;
16743;SDS011;71724;-33.900;151.182;2024-02-26T11:18:25;13.63;;;4.00;;
16743;SDS011;71724;-33.900;151.182;2024-02-26T11:20:54;10.77;;;4.00;;
16743;SDS011;71724;-33.900;151.182;2024-02-26T11:23:23;11.02;;;3.35;;
16743;SDS011;71724;-33.900;151.182;2024-02-26T11:25:54;14.30;;;3.67;;
16743;SDS011;71724;-33.900;151.182;2024-02-26T11:28:25;16.17;;;4.07;;
16743;SDS011;71724;-33.900;151.182;2024-02-26T11:30:54;18.85;;;4.28;;
16743;SDS011;71724;-33.900;151.182;2024-02-26T11:33:25;17.88;;;3.63;;
16743;SDS011;71724;-33.900;151.182;2024-02-26T11:35:53;16.45;;;3.70;;
16743;SDS011;71724;-33.900;151.182;2024-02-26T11:38:21;16.73;;;3.88;;
16743;SDS011;71724;-33.900;151.182;2024-02-26T11:40:50;20.10;;;4.47;;
16743;SDS011;71724;-33.900;151.182;2024-02-26T11:43:23;15.90;;;3.72;;
16743;SDS011;71724;-33.900;151.182;2024-02-26T11:46:24;19.13;;;3.80;;
16743;SDS011;71724;-33.900;151.182;2024-02-26T11:49:00;10.13;;;3.55;;
16743;SDS011;71724;-33.900;151.182;2024-02-26T11:51:32;13.23;;;3.05;;
16743;SDS011;71724;-33.900;151.182;2024-02-26T11:54:01;9.70;;;3.58;;
16743;SDS011;71724;-33.900;151.182;2024-02-26T11:56:28;14.00;;;3.25;;
16743;SDS011;71724;-33.900;151.182;2024-02-26T11:59:02;15.15;;;3.88;;
16743;SDS011;71724;-33.900;151.182;2024-02-26T12:01:58;12.65;;;3.28;;
16743;SDS011;71724;-33.900;151.182;2024-02-26T12:04:26;11.68;;;3.35;;
16743;SDS011;71724;-33.900;151.182;2024-02-26T12:06:56;14.40;;;3.33;;
16743;SDS011;71724;-33.900;151.182;2024-02-26T12:09:39;18.85;;;3.80;;
16743;SDS011;71724;-33.900;151.182;2024-02-26T12:12:08;15.57;;;3.53;;
16743;SDS011;71724;-33.900;151.182;2024-02-26T12:14:40;13.25;;;3.38;;
16743;SDS011;71724;-33.900;151.182;2024-02-26T12:17:24;10.77;;;2.95;;
16743;SDS011;71724;-33.900;151.182;2024-02-26T12:19:53;19.73;;;4.07;;
16743;SDS011;71724;-33.900;151.182;2024-02-26T12:22:21;15.48;;;3.05;;
16743;SDS011;71724;-33.900;151.182;2024-02-26T12:24:58;16.38;;;3.88;;
16743;SDS011;71724;-33.900;151.182;2024-02-26T12:27:28;14.02;;;3.08;;
16743;SDS011;71724;-33.900;151.182;2024-02-26T12:29:56;16.65;;;3.20;;
16743;SDS011;71724;-33.900;151.182;2024-02-26T12:32:23;14.52;;;3.25;;
16743;SDS011;71724;-33.900;151.182;2024-02-26T12:34:52;15.93;;;3.33;;
16743;SDS011;71724;-33.900;151.182;2024-02-26T12:37:19;14.57;;;3.80;;
16743;SDS011;71724;-33.900;151.182;2024-02-26T12:39:47;16.45;;;3.55;;
16743;SDS011;71724;-33.900;151.182;2024-02-26T12:42:14;13.75;;;2.83;;
16743;SDS011;71724;-33.900;151.182;2024-02-26T12:44:41;15.93;;;3.25;;
16743;SDS011;71724;-33.900;151.182;2024-02-26T12:47:10;16.02;;;3.38;;
16743;SDS011;71724;-33.900;151.182;2024-02-26T12:49:48;12.65;;;3.20;;
16743;SDS011;71724;-33.900;151.182;2024-02-26T12:52:16;17.70;;;3.45;;
16743;SDS011;71724;-33.900;151.182;2024-02-26T12:54:44;13.13;;;2.60;;
16743;SDS011;71724;-33.900;151.182;2024-02-26T12:57:11;10.23;;;2.75;;
16743;SDS011;71724;-33.900;151.182;2024-02-26T12:59:39;13.02;;;3.05;;
16743;SDS011;71724;-33.900;151.182;2024-02-26T13:02:06;15.85;;;3.45;;
16743;SDS011;71724;-33.900;151.182;2024-02-26T13:04:34;19.45;;;2.67;;
16743;SDS011;71724;-33.900;151.182;2024-02-26T13:07:05;11.82;;;3.38;;
16743;SDS011;71724;-33.900;151.182;2024-02-26T13:09:33;11.05;;;2.50;;
16743;SDS011;71724;-33.900;151.182;2024-02-26T13:12:03;15.93;;;3.38;;
16743;SDS011;71724;-33.900;151.182;2024-02-26T13:14:31;16.30;;;3.78;;
16743;SDS011;71724;-33.900;151.182;2024-02-26T13:17:02;13.43;;;2.80;;
16743;SDS011;71724;-33.900;151.182;2024-02-26T13:19:30;14.13;;;2.70;;
16743;SDS011;71724;-33.900;151.182;2024-02-26T13:22:03;13.15;;;2.83;;
16743;SDS011;71724;-33.900;151.182;2024-02-26T13:24:32;15.75;;;3.15;;
16743;SDS011;71724;-33.900;151.182;2024-02-26T13:27:00;12.10;;;3.60;;
16743;SDS011;71724;-33.900;151.182;2024-02-26T13:29:30;14.30;;;2.78;;
16743;SDS011;71724;-33.900;151.182;2024-02-26T13:31:58;12.35;;;2.60;;
16743;SDS011;71724;-33.900;151.182;2024-02-26T13:34:27;14.48;;;2.80;;
16743;SDS011;71724;-33.900;151.182;2024-02-26T13:36:56;18.70;;;3.40;;
16743;SDS011;71724;-33.900;151.182;2024-02-26T13:39:24;17.10;;;3.30;;
16743;SDS011;71724;-33.900;151.182;2024-02-26T13:41:53;13.95;;;2.75;;
16743;SDS011;71724;-33.900;151.182;2024-02-26T13:44:22;11.23;;;2.35;;
16743;SDS011;71724;-33.900;151.182;2024-02-26T13:46:50;12.93;;;2.60;;
16743;SDS011;71724;-33.900;151.182;2024-02-26T13:49:17;10.40;;;2.63;;
16743;SDS011;71724;-33.900;151.182;2024-02-26T13:51:45;14.07;;;3.08;;
16743;SDS011;71724;-33.900;151.182;2024-02-26T13:54:12;17.15;;;2.97;;
16743;SDS011;71724;-33.900;151.182;2024-02-26T13:56:40;19.77;;;3.47;;
16743;SDS011;71724;-33.900;151.182;2024-02-26T13:59:07;16.50;;;3.28;;
16743;SDS011;71724;-33.900;151.182;2024-02-26T14:01:35;13.73;;;2.78;;
16743;SDS011;71724;-33.900;151.182;2024-02-26T14:04:02;14.02;;;3.20;;
16743;SDS011;71724;-33.900;151.182;2024-02-26T14:06:30;8.88;;;2.20;;